sensor_id;sensor_type;location;lat;lon;timestamp;temperature;humidity
15341;DHT22;7770;52.158;5.372;2023-04-19T00:00:32;9.10;99.90
15341;DHT22;7770;52.158;5.372;2023-04-19T00:03:19;9.00;99.90
15341;DHT22;7770;52.158;5.372;2023-04-19T00:06:05;9.00;99.90
15341;DHT22;7770;52.158;5.372;2023-04-19T00:08:52;9.00;99.90
15341;DHT22;7770;52.158;5.372;2023-04-19T00:11:40;9.00;99.90
15341;DHT22;7770;52.158;5.372;2023-04-19T00:14:26;9.10;99.90
15341;DHT22;7770;52.158;5.372;2023-04-19T00:17:12;9.00;99.90
15341;DHT22;7770;52.158;5.372;2023-04-19T00:19:58;9.00;99.90
15341;DHT22;7770;52.158;5.372;2023-04-19T00:22:44;8.90;99.90
15341;DHT22;7770;52.158;5.372;2023-04-19T00:25:30;8.90;99.90
15341;DHT22;7770;52.158;5.372;2023-04-19T00:28:16;8.80;99.90
15341;DHT22;7770;52.158;5.372;2023-04-19T00:31:02;8.80;99.90
15341;DHT22;7770;52.158;5.372;2023-04-19T00:33:48;8.70;99.90
15341;DHT22;7770;52.158;5.372;2023-04-19T00:36:34;8.70;99.90
15341;DHT22;7770;52.158;5.372;2023-04-19T00:39:20;8.60;99.90
15341;DHT22;7770;52.158;5.372;2023-04-19T00:42:06;8.50;99.90
15341;DHT22;7770;52.158;5.372;2023-04-19T00:44:52;8.40;99.90
15341;DHT22;7770;52.158;5.372;2023-04-19T00:47:38;8.40;99.90
15341;DHT22;7770;52.158;5.372;2023-04-19T00:50:25;8.30;99.90
15341;DHT22;7770;52.158;5.372;2023-04-19T00:53:11;8.40;99.90
15341;DHT22;7770;52.158;5.372;2023-04-19T00:55:59;8.40;99.90
15341;DHT22;7770;52.158;5.372;2023-04-19T00:58:47;8.40;99.90
15341;DHT22;7770;52.158;5.372;2023-04-19T01:01:33;8.30;99.90
15341;DHT22;7770;52.158;5.372;2023-04-19T01:04:19;8.30;99.90
15341;DHT22;7770;52.158;5.372;2023-04-19T01:07:08;8.20;99.90
15341;DHT22;7770;52.158;5.372;2023-04-19T01:09:54;8.30;99.90
15341;DHT22;7770;52.158;5.372;2023-04-19T01:12:40;8.20;99.90
15341;DHT22;7770;52.158;5.372;2023-04-19T01:15:26;8.30;99.90
15341;DHT22;7770;52.158;5.372;2023-04-19T01:18:12;8.40;99.90
15341;DHT22;7770;52.158;5.372;2023-04-19T01:20:58;8.40;99.90
15341;DHT22;7770;52.158;5.372;2023-04-19T01:23:44;8.40;99.90
15341;DHT22;7770;52.158;5.372;2023-04-19T01:26:30;8.50;99.90
15341;DHT22;7770;52.158;5.372;2023-04-19T01:29:16;8.50;99.90
15341;DHT22;7770;52.158;5.372;2023-04-19T01:32:03;8.50;99.90
15341;DHT22;7770;52.158;5.372;2023-04-19T01:34:50;8.50;99.90
15341;DHT22;7770;52.158;5.372;2023-04-19T01:37:37;8.60;99.90
15341;DHT22;7770;52.158;5.372;2023-04-19T01:40:24;8.60;99.90
15341;DHT22;7770;52.158;5.372;2023-04-19T01:43:12;8.60;99.90
15341;DHT22;7770;52.158;5.372;2023-04-19T01:45:59;8.70;99.90
15341;DHT22;7770;52.158;5.372;2023-04-19T01:48:45;8.70;99.90
15341;DHT22;7770;52.158;5.372;2023-04-19T01:51:31;8.80;99.90
15341;DHT22;7770;52.158;5.372;2023-04-19T01:54:17;8.80;99.90
15341;DHT22;7770;52.158;5.372;2023-04-19T01:57:03;8.80;99.90
15341;DHT22;7770;52.158;5.372;2023-04-19T01:59:49;8.90;99.90
15341;DHT22;7770;52.158;5.372;2023-04-19T02:02:36;8.90;99.90
15341;DHT22;7770;52.158;5.372;2023-04-19T02:05:23;8.90;99.90
15341;DHT22;7770;52.158;5.372;2023-04-19T02:08:09;8.90;99.90
15341;DHT22;7770;52.158;5.372;2023-04-19T02:10:55;9.00;99.90
15341;DHT22;7770;52.158;5.372;2023-04-19T02:13:41;9.00;99.90
15341;DHT22;7770;52.158;5.372;2023-04-19T02:16:27;9.00;99.90
15341;DHT22;7770;52.158;5.372;2023-04-19T02:19:13;9.10;99.90
15341;DHT22;7770;52.158;5.372;2023-04-19T02:21:59;9.10;99.90
15341;DHT22;7770;52.158;5.372;2023-04-19T02:24:46;9.10;99.90
15341;DHT22;7770;52.158;5.372;2023-04-19T02:27:34;9.10;99.90
15341;DHT22;7770;52.158;5.372;2023-04-19T02:30:20;9.20;99.90
15341;DHT22;7770;52.158;5.372;2023-04-19T02:33:06;9.20;99.90
15341;DHT22;7770;52.158;5.372;2023-04-19T02:35:52;9.20;99.90
15341;DHT22;7770;52.158;5.372;2023-04-19T02:38:38;9.20;99.90
15341;DHT22;7770;52.158;5.372;2023-04-19T02:41:24;9.20;99.90
15341;DHT22;7770;52.158;5.372;2023-04-19T02:44:10;9.20;99.90
15341;DHT22;7770;52.158;5.372;2023-04-19T02:46:57;9.30;99.90
15341;DHT22;7770;52.158;5.372;2023-04-19T02:49:43;9.30;99.90
15341;DHT22;7770;52.158;5.372;2023-04-19T02:52:29;9.30;99.90
15341;DHT22;7770;52.158;5.372;2023-04-19T02:55:15;9.30;99.90
15341;DHT22;7770;52.158;5.372;2023-04-19T02:58:01;9.30;99.90
15341;DHT22;7770;52.158;5.372;2023-04-19T03:00:47;9.30;99.90
15341;DHT22;7770;52.158;5.372;2023-04-19T03:03:33;9.30;99.90
15341;DHT22;7770;52.158;5.372;2023-04-19T03:06:19;9.30;99.90
15341;DHT22;7770;52.158;5.372;2023-04-19T03:09:05;9.30;99.90
15341;DHT22;7770;52.158;5.372;2023-04-19T03:11:51;9.40;99.90
15341;DHT22;7770;52.158;5.372;2023-04-19T03:14:37;9.30;99.90
15341;DHT22;7770;52.158;5.372;2023-04-19T03:17:23;9.40;99.90
15341;DHT22;7770;52.158;5.372;2023-04-19T03:20:10;9.40;99.90
15341;DHT22;7770;52.158;5.372;2023-04-19T03:22:56;9.40;99.90
15341;DHT22;7770;52.158;5.372;2023-04-19T03:25:42;9.50;99.90
15341;DHT22;7770;52.158;5.372;2023-04-19T03:28:28;9.50;99.90
15341;DHT22;7770;52.158;5.372;2023-04-19T03:31:14;9.60;99.90
15341;DHT22;7770;52.158;5.372;2023-04-19T03:34:00;9.60;99.90
15341;DHT22;7770;52.158;5.372;2023-04-19T03:36:46;9.60;99.90
15341;DHT22;7770;52.158;5.372;2023-04-19T03:39:32;9.60;99.90
15341;DHT22;7770;52.158;5.372;2023-04-19T03:42:18;9.60;99.90
15341;DHT22;7770;52.158;5.372;2023-04-19T03:45:04;9.60;99.90
15341;DHT22;7770;52.158;5.372;2023-04-19T03:47:50;9.60;99.90
15341;DHT22;7770;52.158;5.372;2023-04-19T03:50:36;9.60;99.90
15341;DHT22;7770;52.158;5.372;2023-04-19T03:53:22;9.60;99.90
15341;DHT22;7770;52.158;5.372;2023-04-19T03:56:08;9.60;99.90
15341;DHT22;7770;52.158;5.372;2023-04-19T03:58:55;9.50;99.90
15341;DHT22;7770;52.158;5.372;2023-04-19T04:01:41;9.40;99.90
15341;DHT22;7770;52.158;5.372;2023-04-19T04:04:27;9.30;99.90
15341;DHT22;7770;52.158;5.372;2023-04-19T04:07:13;9.30;99.90
15341;DHT22;7770;52.158;5.372;2023-04-19T04:09:59;9.20;99.90
15341;DHT22;7770;52.158;5.372;2023-04-19T04:12:45;9.10;99.90
15341;DHT22;7770;52.158;5.372;2023-04-19T04:15:31;9.10;99.90
15341;DHT22;7770;52.158;5.372;2023-04-19T04:18:17;9.10;99.90
15341;DHT22;7770;52.158;5.372;2023-04-19T04:21:03;9.10;99.90
15341;DHT22;7770;52.158;5.372;2023-04-19T04:23:49;9.00;99.90
15341;DHT22;7770;52.158;5.372;2023-04-19T04:26:36;9.00;99.90
15341;DHT22;7770;52.158;5.372;2023-04-19T04:29:23;9.00;99.90
15341;DHT22;7770;52.158;5.372;2023-04-19T04:32:10;8.90;99.90
15341;DHT22;7770;52.158;5.372;2023-04-19T04:34:58;8.90;99.90
15341;DHT22;7770;52.158;5.372;2023-04-19T04:37:44;8.90;99.90
15341;DHT22;7770;52.158;5.372;2023-04-19T04:40:30;8.80;99.90
15341;DHT22;7770;52.158;5.372;2023-04-19T04:43:18;8.80;99.90
15341;DHT22;7770;52.158;5.372;2023-04-19T04:46:06;8.70;99.90
15341;DHT22;7770;52.158;5.372;2023-04-19T04:48:52;8.70;99.90
15341;DHT22;7770;52.158;5.372;2023-04-19T04:51:38;8.70;99.90
15341;DHT22;7770;52.158;5.372;2023-04-19T04:54:24;8.60;99.90
15341;DHT22;7770;52.158;5.372;2023-04-19T04:57:10;8.60;99.90
15341;DHT22;7770;52.158;5.372;2023-04-19T04:59:56;8.60;99.90
15341;DHT22;7770;52.158;5.372;2023-04-19T05:02:42;8.50;99.90
15341;DHT22;7770;52.158;5.372;2023-04-19T05:05:28;8.50;99.90
15341;DHT22;7770;52.158;5.372;2023-04-19T05:08:14;8.50;99.90
15341;DHT22;7770;52.158;5.372;2023-04-19T05:11:00;8.40;99.90
15341;DHT22;7770;52.158;5.372;2023-04-19T05:13:47;8.40;99.90
15341;DHT22;7770;52.158;5.372;2023-04-19T05:16:32;8.40;99.90
15341;DHT22;7770;52.158;5.372;2023-04-19T05:19:19;8.40;99.90
15341;DHT22;7770;52.158;5.372;2023-04-19T05:22:04;8.40;99.90
15341;DHT22;7770;52.158;5.372;2023-04-19T05:24:51;8.40;99.90
15341;DHT22;7770;52.158;5.372;2023-04-19T05:27:37;8.40;99.90
15341;DHT22;7770;52.158;5.372;2023-04-19T05:30:23;8.40;99.90
15341;DHT22;7770;52.158;5.372;2023-04-19T05:33:09;8.50;99.90
15341;DHT22;7770;52.158;5.372;2023-04-19T05:35:55;8.50;99.90
15341;DHT22;7770;52.158;5.372;2023-04-19T05:38:41;8.60;99.90
15341;DHT22;7770;52.158;5.372;2023-04-19T05:41:27;8.60;99.90
15341;DHT22;7770;52.158;5.372;2023-04-19T05:44:13;8.70;99.90
15341;DHT22;7770;52.158;5.372;2023-04-19T05:46:59;8.70;99.90
15341;DHT22;7770;52.158;5.372;2023-04-19T05:49:45;8.80;99.90
15341;DHT22;7770;52.158;5.372;2023-04-19T05:52:31;8.90;99.90
15341;DHT22;7770;52.158;5.372;2023-04-19T05:55:17;8.90;99.90
15341;DHT22;7770;52.158;5.372;2023-04-19T05:58:03;9.00;99.90
15341;DHT22;7770;52.158;5.372;2023-04-19T06:00:50;9.10;99.90
15341;DHT22;7770;52.158;5.372;2023-04-19T06:03:37;9.20;99.90
15341;DHT22;7770;52.158;5.372;2023-04-19T06:06:23;9.20;99.90
15341;DHT22;7770;52.158;5.372;2023-04-19T06:09:10;9.20;99.90
15341;DHT22;7770;52.158;5.372;2023-04-19T06:11:57;9.40;99.90
15341;DHT22;7770;52.158;5.372;2023-04-19T06:14:43;9.50;99.90
15341;DHT22;7770;52.158;5.372;2023-04-19T06:17:29;9.60;99.90
15341;DHT22;7770;52.158;5.372;2023-04-19T06:20:15;9.60;99.90
15341;DHT22;7770;52.158;5.372;2023-04-19T06:23:01;9.70;99.90
15341;DHT22;7770;52.158;5.372;2023-04-19T06:25:47;9.90;99.90
15341;DHT22;7770;52.158;5.372;2023-04-19T06:28:33;10.00;99.90
15341;DHT22;7770;52.158;5.372;2023-04-19T06:31:19;10.10;99.90
15341;DHT22;7770;52.158;5.372;2023-04-19T06:34:06;10.30;99.90
15341;DHT22;7770;52.158;5.372;2023-04-19T06:36:52;10.80;99.90
15341;DHT22;7770;52.158;5.372;2023-04-19T06:39:38;11.50;99.60
15341;DHT22;7770;52.158;5.372;2023-04-19T06:42:24;11.70;97.30
15341;DHT22;7770;52.158;5.372;2023-04-19T06:45:10;11.80;97.40
15341;DHT22;7770;52.158;5.372;2023-04-19T06:47:56;12.00;97.30
15341;DHT22;7770;52.158;5.372;2023-04-19T06:50:42;12.30;96.50
15341;DHT22;7770;52.158;5.372;2023-04-19T06:53:28;12.00;96.80
15341;DHT22;7770;52.158;5.372;2023-04-19T06:56:14;11.80;96.60
15341;DHT22;7770;52.158;5.372;2023-04-19T06:59:00;11.70;96.20
15341;DHT22;7770;52.158;5.372;2023-04-19T07:01:47;11.50;95.70
15341;DHT22;7770;52.158;5.372;2023-04-19T07:04:33;11.70;94.80
15341;DHT22;7770;52.158;5.372;2023-04-19T07:07:19;11.90;94.30
15341;DHT22;7770;52.158;5.372;2023-04-19T07:10:06;11.90;93.90
15341;DHT22;7770;52.158;5.372;2023-04-19T07:12:53;11.80;93.80
15341;DHT22;7770;52.158;5.372;2023-04-19T07:15:39;11.70;93.70
15341;DHT22;7770;52.158;5.372;2023-04-19T07:18:25;11.60;93.70
15341;DHT22;7770;52.158;5.372;2023-04-19T07:21:11;11.50;94.10
15341;DHT22;7770;52.158;5.372;2023-04-19T07:23:57;11.30;94.50
15341;DHT22;7770;52.158;5.372;2023-04-19T07:26:44;11.70;94.10
15341;DHT22;7770;52.158;5.372;2023-04-19T07:29:30;11.90;93.70
15341;DHT22;7770;52.158;5.372;2023-04-19T07:32:16;12.60;93.20
15341;DHT22;7770;52.158;5.372;2023-04-19T07:35:02;13.00;92.10
15341;DHT22;7770;52.158;5.372;2023-04-19T07:37:48;13.00;92.10
15341;DHT22;7770;52.158;5.372;2023-04-19T07:40:34;13.70;91.50
15341;DHT22;7770;52.158;5.372;2023-04-19T07:43:20;13.60;91.00
15341;DHT22;7770;52.158;5.372;2023-04-19T07:46:10;14.50;91.10
15341;DHT22;7770;52.158;5.372;2023-04-19T07:48:57;15.20;89.80
15341;DHT22;7770;52.158;5.372;2023-04-19T07:51:44;15.10;89.20
15341;DHT22;7770;52.158;5.372;2023-04-19T07:54:30;15.00;88.80
15341;DHT22;7770;52.158;5.372;2023-04-19T07:57:16;14.10;90.10
15341;DHT22;7770;52.158;5.372;2023-04-19T08:00:03;13.80;90.20
15341;DHT22;7770;52.158;5.372;2023-04-19T08:02:49;13.30;90.50
15341;DHT22;7770;52.158;5.372;2023-04-19T08:05:35;13.20;90.80
15341;DHT22;7770;52.158;5.372;2023-04-19T08:08:21;13.50;90.70
15341;DHT22;7770;52.158;5.372;2023-04-19T08:11:08;14.50;89.70
15341;DHT22;7770;52.158;5.372;2023-04-19T08:13:54;15.10;87.10
15341;DHT22;7770;52.158;5.372;2023-04-19T08:16:40;15.30;87.00
15341;DHT22;7770;52.158;5.372;2023-04-19T08:19:26;15.80;85.30
15341;DHT22;7770;52.158;5.372;2023-04-19T08:22:12;16.20;84.70
15341;DHT22;7770;52.158;5.372;2023-04-19T08:24:57;15.20;85.50
15341;DHT22;7770;52.158;5.372;2023-04-19T08:27:43;15.40;85.70
15341;DHT22;7770;52.158;5.372;2023-04-19T08:30:30;15.80;85.40
15341;DHT22;7770;52.158;5.372;2023-04-19T08:33:16;16.70;83.10
15341;DHT22;7770;52.158;5.372;2023-04-19T08:36:03;15.80;83.80
15341;DHT22;7770;52.158;5.372;2023-04-19T08:38:49;16.00;84.40
15341;DHT22;7770;52.158;5.372;2023-04-19T08:41:35;17.30;82.50
15341;DHT22;7770;52.158;5.372;2023-04-19T08:44:22;17.40;80.70
15341;DHT22;7770;52.158;5.372;2023-04-19T08:47:08;16.00;82.70
15341;DHT22;7770;52.158;5.372;2023-04-19T08:49:56;15.50;83.80
15341;DHT22;7770;52.158;5.372;2023-04-19T08:52:47;17.00;82.80
15341;DHT22;7770;52.158;5.372;2023-04-19T08:55:33;17.00;81.40
15341;DHT22;7770;52.158;5.372;2023-04-19T08:58:20;17.40;80.40
15341;DHT22;7770;52.158;5.372;2023-04-19T09:01:07;17.70;79.40
15341;DHT22;7770;52.158;5.372;2023-04-19T09:03:53;16.30;80.20
15341;DHT22;7770;52.158;5.372;2023-04-19T09:06:39;16.20;80.20
15341;DHT22;7770;52.158;5.372;2023-04-19T09:09:28;15.30;81.80
15341;DHT22;7770;52.158;5.372;2023-04-19T09:12:16;16.40;81.60
15341;DHT22;7770;52.158;5.372;2023-04-19T09:15:03;16.60;80.40
15341;DHT22;7770;52.158;5.372;2023-04-19T09:18:03;17.10;79.60
15341;DHT22;7770;52.158;5.372;2023-04-19T09:20:52;16.50;78.30
15341;DHT22;7770;52.158;5.372;2023-04-19T09:23:46;16.10;79.10
15341;DHT22;7770;52.158;5.372;2023-04-19T09:26:33;16.20;78.80
15341;DHT22;7770;52.158;5.372;2023-04-19T09:29:20;15.40;79.80
15341;DHT22;7770;52.158;5.372;2023-04-19T09:32:06;15.80;79.90
15341;DHT22;7770;52.158;5.372;2023-04-19T09:34:53;16.80;78.20
15341;DHT22;7770;52.158;5.372;2023-04-19T09:37:42;16.10;78.70
15341;DHT22;7770;52.158;5.372;2023-04-19T09:40:43;16.40;79.60
15341;DHT22;7770;52.158;5.372;2023-04-19T09:43:29;17.40;77.70
15341;DHT22;7770;52.158;5.372;2023-04-19T09:46:35;16.20;78.60
15341;DHT22;7770;52.158;5.372;2023-04-19T09:49:23;16.10;79.60
15341;DHT22;7770;52.158;5.372;2023-04-19T09:52:13;17.10;78.60
15341;DHT22;7770;52.158;5.372;2023-04-19T09:55:01;16.50;77.80
15341;DHT22;7770;52.158;5.372;2023-04-19T09:57:49;16.70;78.70
15341;DHT22;7770;52.158;5.372;2023-04-19T10:00:36;17.50;77.10
15341;DHT22;7770;52.158;5.372;2023-04-19T10:03:27;17.40;77.20
15341;DHT22;7770;52.158;5.372;2023-04-19T10:06:16;16.60;77.70
15341;DHT22;7770;52.158;5.372;2023-04-19T10:09:03;16.80;77.40
15341;DHT22;7770;52.158;5.372;2023-04-19T10:11:52;17.10;77.20
15341;DHT22;7770;52.158;5.372;2023-04-19T10:14:39;16.80;77.30
15341;DHT22;7770;52.158;5.372;2023-04-19T10:17:25;17.30;78.90
15341;DHT22;7770;52.158;5.372;2023-04-19T10:20:18;16.50;79.00
15341;DHT22;7770;52.158;5.372;2023-04-19T10:23:08;17.70;78.30
15341;DHT22;7770;52.158;5.372;2023-04-19T10:25:56;18.50;76.60
15341;DHT22;7770;52.158;5.372;2023-04-19T10:28:43;17.60;76.70
15341;DHT22;7770;52.158;5.372;2023-04-19T10:31:29;18.00;76.70
15341;DHT22;7770;52.158;5.372;2023-04-19T10:34:40;17.90;77.10
15341;DHT22;7770;52.158;5.372;2023-04-19T10:37:26;18.80;74.10
15341;DHT22;7770;52.158;5.372;2023-04-19T10:43:44;16.80;75.70
15341;DHT22;7770;52.158;5.372;2023-04-19T10:49:17;18.30;73.50
15341;DHT22;7770;52.158;5.372;2023-04-19T10:52:25;17.00;74.90
15341;DHT22;7770;52.158;5.372;2023-04-19T10:55:14;16.40;75.50
15341;DHT22;7770;52.158;5.372;2023-04-19T10:58:03;17.10;75.60
15341;DHT22;7770;52.158;5.372;2023-04-19T11:00:50;17.90;74.60
15341;DHT22;7770;52.158;5.372;2023-04-19T11:06:32;18.80;72.90
15341;DHT22;7770;52.158;5.372;2023-04-19T11:09:31;17.20;72.60
15341;DHT22;7770;52.158;5.372;2023-04-19T11:12:22;16.70;72.90
15341;DHT22;7770;52.158;5.372;2023-04-19T11:15:08;16.70;72.90
15341;DHT22;7770;52.158;5.372;2023-04-19T11:17:55;17.20;71.80
15341;DHT22;7770;52.158;5.372;2023-04-19T11:20:43;17.70;70.80
15341;DHT22;7770;52.158;5.372;2023-04-19T11:23:29;17.10;71.70
15341;DHT22;7770;52.158;5.372;2023-04-19T11:26:15;17.80;71.60
15341;DHT22;7770;52.158;5.372;2023-04-19T11:29:01;17.80;71.30
15341;DHT22;7770;52.158;5.372;2023-04-19T11:31:47;17.50;71.70
15341;DHT22;7770;52.158;5.372;2023-04-19T11:34:39;19.00;70.20
15341;DHT22;7770;52.158;5.372;2023-04-19T11:37:31;18.50;68.80
15341;DHT22;7770;52.158;5.372;2023-04-19T11:40:20;18.00;69.80
15341;DHT22;7770;52.158;5.372;2023-04-19T11:43:07;18.20;68.90
15341;DHT22;7770;52.158;5.372;2023-04-19T11:45:53;18.10;68.50
15341;DHT22;7770;52.158;5.372;2023-04-19T11:48:50;17.90;68.80
15341;DHT22;7770;52.158;5.372;2023-04-19T11:51:41;17.50;68.60
15341;DHT22;7770;52.158;5.372;2023-04-19T11:54:28;18.40;67.20
15341;DHT22;7770;52.158;5.372;2023-04-19T11:57:14;18.60;65.90
15341;DHT22;7770;52.158;5.372;2023-04-19T12:00:08;17.00;66.70
15341;DHT22;7770;52.158;5.372;2023-04-19T12:02:58;17.10;67.20
15341;DHT22;7770;52.158;5.372;2023-04-19T12:05:52;16.20;67.70
15341;DHT22;7770;52.158;5.372;2023-04-19T12:08:45;16.20;70.40
15341;DHT22;7770;52.158;5.372;2023-04-19T12:11:45;15.80;68.90
15341;DHT22;7770;52.158;5.372;2023-04-19T12:14:34;16.50;69.20
15341;DHT22;7770;52.158;5.372;2023-04-19T12:17:20;16.40;68.30
15341;DHT22;7770;52.158;5.372;2023-04-19T12:20:07;16.30;69.40
15341;DHT22;7770;52.158;5.372;2023-04-19T12:22:53;15.70;69.50
15341;DHT22;7770;52.158;5.372;2023-04-19T12:25:39;15.70;71.10
15341;DHT22;7770;52.158;5.372;2023-04-19T12:28:26;15.80;70.60
15341;DHT22;7770;52.158;5.372;2023-04-19T12:31:12;15.60;69.70
15341;DHT22;7770;52.158;5.372;2023-04-19T12:33:58;15.70;70.20
15341;DHT22;7770;52.158;5.372;2023-04-19T12:36:44;15.80;72.20
15341;DHT22;7770;52.158;5.372;2023-04-19T12:39:30;16.30;72.10
15341;DHT22;7770;52.158;5.372;2023-04-19T12:42:16;16.00;73.00
15341;DHT22;7770;52.158;5.372;2023-04-19T12:45:02;15.70;72.90
15341;DHT22;7770;52.158;5.372;2023-04-19T12:47:48;15.50;73.60
15341;DHT22;7770;52.158;5.372;2023-04-19T12:50:34;15.50;73.00
15341;DHT22;7770;52.158;5.372;2023-04-19T12:53:20;15.70;72.00
15341;DHT22;7770;52.158;5.372;2023-04-19T12:56:08;15.70;72.00
15341;DHT22;7770;52.158;5.372;2023-04-19T12:58:56;15.40;72.30
15341;DHT22;7770;52.158;5.372;2023-04-19T13:01:42;15.30;71.50
15341;DHT22;7770;52.158;5.372;2023-04-19T13:04:28;15.20;72.40
15341;DHT22;7770;52.158;5.372;2023-04-19T13:07:14;15.20;73.40
15341;DHT22;7770;52.158;5.372;2023-04-19T13:10:00;14.90;74.30
15341;DHT22;7770;52.158;5.372;2023-04-19T13:12:48;15.00;74.60
15341;DHT22;7770;52.158;5.372;2023-04-19T13:15:34;15.20;74.80
15341;DHT22;7770;52.158;5.372;2023-04-19T13:18:20;15.20;74.40
15341;DHT22;7770;52.158;5.372;2023-04-19T13:21:06;15.20;75.90
15341;DHT22;7770;52.158;5.372;2023-04-19T13:23:52;15.40;77.00
15341;DHT22;7770;52.158;5.372;2023-04-19T13:26:39;15.80;76.90
15341;DHT22;7770;52.158;5.372;2023-04-19T13:29:25;15.80;77.30
15341;DHT22;7770;52.158;5.372;2023-04-19T13:32:11;15.50;77.60
15341;DHT22;7770;52.158;5.372;2023-04-19T13:34:57;15.70;77.10
15341;DHT22;7770;52.158;5.372;2023-04-19T13:37:43;15.50;76.00
15341;DHT22;7770;52.158;5.372;2023-04-19T13:40:31;15.50;76.20
15341;DHT22;7770;52.158;5.372;2023-04-19T13:43:17;15.30;76.50
15341;DHT22;7770;52.158;5.372;2023-04-19T13:46:04;15.50;77.30
15341;DHT22;7770;52.158;5.372;2023-04-19T13:48:50;15.40;78.30
15341;DHT22;7770;52.158;5.372;2023-04-19T13:51:36;15.70;79.10
15341;DHT22;7770;52.158;5.372;2023-04-19T13:54:22;15.60;75.90
15341;DHT22;7770;52.158;5.372;2023-04-19T13:57:08;15.50;75.20
15341;DHT22;7770;52.158;5.372;2023-04-19T13:59:54;15.70;76.40
15341;DHT22;7770;52.158;5.372;2023-04-19T14:02:40;15.80;77.30
15341;DHT22;7770;52.158;5.372;2023-04-19T14:05:28;15.60;77.00
15341;DHT22;7770;52.158;5.372;2023-04-19T14:08:14;15.70;77.60
15341;DHT22;7770;52.158;5.372;2023-04-19T14:11:00;16.00;77.60
15341;DHT22;7770;52.158;5.372;2023-04-19T14:13:46;16.00;75.00
15341;DHT22;7770;52.158;5.372;2023-04-19T14:16:33;15.50;74.40
15341;DHT22;7770;52.158;5.372;2023-04-19T14:19:18;15.50;75.20
15341;DHT22;7770;52.158;5.372;2023-04-19T14:22:05;15.80;76.40
15341;DHT22;7770;52.158;5.372;2023-04-19T14:24:51;16.00;77.30
15341;DHT22;7770;52.158;5.372;2023-04-19T14:27:37;15.90;77.50
15341;DHT22;7770;52.158;5.372;2023-04-19T14:30:23;15.80;75.40
15341;DHT22;7770;52.158;5.372;2023-04-19T14:33:10;15.60;74.00
15341;DHT22;7770;52.158;5.372;2023-04-19T14:35:56;15.60;74.10
15341;DHT22;7770;52.158;5.372;2023-04-19T14:38:42;15.60;74.90
15341;DHT22;7770;52.158;5.372;2023-04-19T14:41:28;15.30;74.00
15341;DHT22;7770;52.158;5.372;2023-04-19T14:44:14;15.50;74.80
15341;DHT22;7770;52.158;5.372;2023-04-19T14:47:00;15.40;74.60
15341;DHT22;7770;52.158;5.372;2023-04-19T14:49:46;15.40;74.90
15341;DHT22;7770;52.158;5.372;2023-04-19T14:52:32;15.40;76.10
15341;DHT22;7770;52.158;5.372;2023-04-19T14:55:19;15.40;75.70
15341;DHT22;7770;52.158;5.372;2023-04-19T14:58:05;15.40;76.80
15341;DHT22;7770;52.158;5.372;2023-04-19T15:00:51;15.10;76.90
15341;DHT22;7770;52.158;5.372;2023-04-19T15:03:38;15.30;77.10
15341;DHT22;7770;52.158;5.372;2023-04-19T15:06:24;15.40;76.30
15341;DHT22;7770;52.158;5.372;2023-04-19T15:09:11;15.10;77.70
15341;DHT22;7770;52.158;5.372;2023-04-19T15:11:58;15.20;78.10
15341;DHT22;7770;52.158;5.372;2023-04-19T15:14:44;15.50;78.80
15341;DHT22;7770;52.158;5.372;2023-04-19T15:17:30;15.50;76.90
15341;DHT22;7770;52.158;5.372;2023-04-19T15:20:16;15.40;79.50
15341;DHT22;7770;52.158;5.372;2023-04-19T15:23:02;15.20;78.70
15341;DHT22;7770;52.158;5.372;2023-04-19T15:25:48;15.20;80.10
15341;DHT22;7770;52.158;5.372;2023-04-19T15:28:34;15.40;83.70
15341;DHT22;7770;52.158;5.372;2023-04-19T15:31:20;15.50;86.10
15341;DHT22;7770;52.158;5.372;2023-04-19T15:34:06;15.50;86.80
15341;DHT22;7770;52.158;5.372;2023-04-19T15:36:52;15.20;86.70
15341;DHT22;7770;52.158;5.372;2023-04-19T15:39:38;15.30;87.70
15341;DHT22;7770;52.158;5.372;2023-04-19T15:42:24;15.20;87.90
15341;DHT22;7770;52.158;5.372;2023-04-19T15:45:10;15.10;88.30
15341;DHT22;7770;52.158;5.372;2023-04-19T15:47:56;15.10;88.60
15341;DHT22;7770;52.158;5.372;2023-04-19T15:50:42;15.10;88.90
15341;DHT22;7770;52.158;5.372;2023-04-19T15:53:28;14.80;88.40
15341;DHT22;7770;52.158;5.372;2023-04-19T15:56:15;14.50;89.70
15341;DHT22;7770;52.158;5.372;2023-04-19T15:59:01;14.70;89.80
15341;DHT22;7770;52.158;5.372;2023-04-19T16:01:47;14.70;90.00
15341;DHT22;7770;52.158;5.372;2023-04-19T16:04:34;14.90;89.30
15341;DHT22;7770;52.158;5.372;2023-04-19T16:07:21;14.90;88.70
15341;DHT22;7770;52.158;5.372;2023-04-19T16:10:07;14.80;88.00
15341;DHT22;7770;52.158;5.372;2023-04-19T16:12:53;14.80;88.40
15341;DHT22;7770;52.158;5.372;2023-04-19T16:15:43;14.70;86.80
15341;DHT22;7770;52.158;5.372;2023-04-19T16:18:29;14.60;87.20
15341;DHT22;7770;52.158;5.372;2023-04-19T16:21:15;14.70;87.30
15341;DHT22;7770;52.158;5.372;2023-04-19T16:24:01;14.50;87.40
15341;DHT22;7770;52.158;5.372;2023-04-19T16:26:47;14.50;87.20
15341;DHT22;7770;52.158;5.372;2023-04-19T16:29:33;14.40;86.60
15341;DHT22;7770;52.158;5.372;2023-04-19T16:32:19;14.40;86.60
15341;DHT22;7770;52.158;5.372;2023-04-19T16:35:06;14.40;86.80
15341;DHT22;7770;52.158;5.372;2023-04-19T16:37:52;14.40;86.70
15341;DHT22;7770;52.158;5.372;2023-04-19T16:40:38;14.40;87.00
15341;DHT22;7770;52.158;5.372;2023-04-19T16:43:24;14.40;87.40
15341;DHT22;7770;52.158;5.372;2023-04-19T16:46:10;14.50;86.10
15341;DHT22;7770;52.158;5.372;2023-04-19T16:48:56;14.30;85.90
15341;DHT22;7770;52.158;5.372;2023-04-19T16:51:43;14.20;86.40
15341;DHT22;7770;52.158;5.372;2023-04-19T16:54:30;14.20;86.40
15341;DHT22;7770;52.158;5.372;2023-04-19T16:57:16;14.00;86.80
15341;DHT22;7770;52.158;5.372;2023-04-19T17:00:04;14.10;87.00
15341;DHT22;7770;52.158;5.372;2023-04-19T17:02:51;14.00;85.70
15341;DHT22;7770;52.158;5.372;2023-04-19T17:05:37;14.00;85.50
15341;DHT22;7770;52.158;5.372;2023-04-19T17:08:23;14.10;86.00
15341;DHT22;7770;52.158;5.372;2023-04-19T17:11:09;14.00;86.00
15341;DHT22;7770;52.158;5.372;2023-04-19T17:13:55;13.90;86.40
15341;DHT22;7770;52.158;5.372;2023-04-19T17:16:41;13.90;86.40
15341;DHT22;7770;52.158;5.372;2023-04-19T17:19:27;13.90;86.10
15341;DHT22;7770;52.158;5.372;2023-04-19T17:22:14;13.90;86.10
15341;DHT22;7770;52.158;5.372;2023-04-19T17:25:00;13.90;86.60
15341;DHT22;7770;52.158;5.372;2023-04-19T17:27:46;13.80;86.90
15341;DHT22;7770;52.158;5.372;2023-04-19T17:30:32;13.80;86.60
15341;DHT22;7770;52.158;5.372;2023-04-19T17:33:18;13.80;86.90
15341;DHT22;7770;52.158;5.372;2023-04-19T17:36:05;13.70;86.60
15341;DHT22;7770;52.158;5.372;2023-04-19T17:38:52;13.60;87.20
15341;DHT22;7770;52.158;5.372;2023-04-19T17:41:38;13.60;87.30
15341;DHT22;7770;52.158;5.372;2023-04-19T17:44:24;13.50;87.70
15341;DHT22;7770;52.158;5.372;2023-04-19T17:47:10;13.50;88.30
15341;DHT22;7770;52.158;5.372;2023-04-19T17:50:09;13.40;88.50
15341;DHT22;7770;52.158;5.372;2023-04-19T17:52:57;13.40;89.60
15341;DHT22;7770;52.158;5.372;2023-04-19T17:55:43;13.30;90.20
15341;DHT22;7770;52.158;5.372;2023-04-19T17:58:29;13.20;90.20
15341;DHT22;7770;52.158;5.372;2023-04-19T18:01:15;13.10;90.50
15341;DHT22;7770;52.158;5.372;2023-04-19T18:04:01;13.00;90.70
15341;DHT22;7770;52.158;5.372;2023-04-19T18:06:48;13.00;90.70